createdAt,value
2022-09-09T00:01:58.699Z,97945.09
2022-09-09T00:04:32.286Z,97952.34
2022-09-09T00:07:12.131Z,97946.13
2022-09-09T00:10:04.234Z,97953.28
2022-09-09T00:12:50.197Z,97939.34
2022-09-09T00:15:27.710Z,97946.44
2022-09-09T00:17:58.394Z,97938.59
2022-09-09T00:20:27.980Z,97941.59
2022-09-09T00:23:14.213Z,97930.22
2022-09-09T00:25:54.847Z,97939.53
2022-09-09T00:28:24.611Z,97933.97
2022-09-09T00:30:51.323Z,97934.19
2022-09-09T00:33:23.278Z,97929.94
2022-09-09T00:35:53.384Z,97930.22
2022-09-09T00:38:59.652Z,97933.41
2022-09-09T00:41:53.285Z,97934.03
2022-09-09T00:44:36.427Z,97932.59
2022-09-09T00:47:32.123Z,97924.25
2022-09-09T00:50:15.802Z,97930.31
2022-09-09T00:53:06.992Z,97928.53
2022-09-09T00:55:50.009Z,97926.38
2022-09-09T00:58:16.859Z,97923.13
2022-09-09T01:00:59.200Z,97941.03
2022-09-09T01:03:34.813Z,97940.50
2022-09-09T01:06:14.693Z,97939.28
2022-09-09T01:09:02.679Z,97938.28
2022-09-09T01:11:48.147Z,97943.00
2022-09-09T01:14:22.112Z,97944.63
2022-09-09T01:16:49.411Z,97946.69
2022-09-09T01:19:28.689Z,97938.00
2022-09-09T01:22:05.209Z,97931.78
2022-09-09T01:24:40.216Z,97936.00
2022-09-09T01:27:16.249Z,97932.75
2022-09-09T01:29:43.079Z,97925.56
2022-09-09T01:32:40.489Z,97928.47
2022-09-09T01:35:15.879Z,97941.00
2022-09-09T01:37:43.030Z,97953.53
2022-09-09T01:40:09.834Z,97957.16
2022-09-09T01:42:37.983Z,97948.91
2022-09-09T01:45:05.579Z,97956.91
2022-09-09T01:47:32.806Z,97951.41
2022-09-09T01:50:12.458Z,97952.91
2022-09-09T01:52:39.477Z,97951.91
2022-09-09T01:55:10.903Z,97950.50
2022-09-09T01:57:57.426Z,97944.38
2022-09-09T02:00:24.501Z,97943.63
2022-09-09T02:03:07.627Z,97940.97
2022-09-09T02:06:06.095Z,97946.69
2022-09-09T02:08:40.361Z,97942.34
2022-09-09T02:11:16.159Z,97943.34
2022-09-09T02:14:07.024Z,97936.94
2022-09-09T02:16:41.919Z,97924.38
2022-09-09T02:19:15.866Z,97925.00
2022-09-09T02:21:57.349Z,97939.38
2022-09-09T02:24:24.462Z,97942.28
2022-09-09T02:27:03.262Z,97954.94
2022-09-09T02:29:39.972Z,97955.78
2022-09-09T02:32:11.176Z,97952.03
2022-09-09T02:34:42.961Z,97949.16
2022-09-09T02:37:10.860Z,97947.53
2022-09-09T02:39:38.642Z,97941.94
2022-09-09T02:42:09.414Z,97945.69
2022-09-09T02:44:37.380Z,97957.97
2022-09-09T02:47:35.461Z,97958.53
2022-09-09T02:50:18.516Z,97950.56
2022-09-09T02:52:59.905Z,97953.34
2022-09-09T02:55:39.909Z,97959.34
2022-09-09T02:58:12.919Z,97944.72
2022-09-09T03:00:41.056Z,97940.41
2022-09-09T03:03:09.890Z,97941.72
2022-09-09T03:05:38.177Z,97945.78
2022-09-09T03:08:06.516Z,97937.03
2022-09-09T03:10:34.009Z,97932.53
2022-09-09T03:13:00.892Z,97935.19
2022-09-09T03:15:31.325Z,97923.47
2022-09-09T03:17:59.744Z,97919.44
2022-09-09T03:20:27.912Z,97914.78
2022-09-09T03:22:55.600Z,97927.09
2022-09-09T03:25:24.878Z,97924.69
2022-09-09T03:27:55.365Z,97923.06
2022-09-09T03:30:23.908Z,97931.84
2022-09-09T03:32:50.677Z,97939.72
2022-09-09T03:35:17.919Z,97940.47
2022-09-09T03:37:44.825Z,97939.28
2022-09-09T03:40:13.671Z,97932.13
2022-09-09T03:42:43.082Z,97930.47
2022-09-09T03:45:11.689Z,97926.16
2022-09-09T03:47:40.477Z,97932.94
2022-09-09T03:50:09.680Z,97933.06
2022-09-09T03:52:39.312Z,97938.50
2022-09-09T03:55:09.550Z,97945.00
2022-09-09T03:57:38.790Z,97940.97
2022-09-09T04:00:09.261Z,97946.22
2022-09-09T04:02:48.420Z,97944.88
2022-09-09T04:05:16.768Z,97948.53
2022-09-09T04:07:45.341Z,97942.28
2022-09-09T04:10:12.532Z,97950.03
2022-09-09T04:12:40.617Z,97948.06
2022-09-09T04:15:07.873Z,97950.13
2022-09-09T04:17:37.387Z,97946.84
2022-09-09T04:20:04.741Z,97946.31
2022-09-09T04:22:33.058Z,97940.63
2022-09-09T04:25:00.191Z,97941.81
2022-09-09T04:27:27.517Z,97947.22
2022-09-09T04:29:54.275Z,97945.25
2022-09-09T04:32:22.292Z,97952.34
2022-09-09T04:34:49.190Z,97955.50
2022-09-09T04:37:16.201Z,97954.97
2022-09-09T04:39:43.431Z,97955.59
2022-09-09T04:42:10.101Z,97952.41
2022-09-09T04:44:37.194Z,97949.38
2022-09-09T04:47:04.083Z,97948.34
2022-09-09T04:49:32.305Z,97954.88
2022-09-09T04:51:59.195Z,97950.94
2022-09-09T04:54:26.456Z,97950.78
2022-09-09T04:56:53.215Z,97950.50
2022-09-09T04:59:19.891Z,97951.16
2022-09-09T05:01:51.339Z,97960.50
2022-09-09T05:04:18.403Z,97968.81
2022-09-09T05:06:45.236Z,97962.56
2022-09-09T05:09:13.366Z,97968.03
2022-09-09T05:11:40.006Z,97960.69
2022-09-09T05:14:24.116Z,97971.97
2022-09-09T05:16:51.013Z,97968.31
2022-09-09T05:19:20.152Z,97985.50
2022-09-09T05:21:49.135Z,97978.66
2022-09-09T05:24:18.866Z,97984.22
2022-09-09T05:26:47.160Z,97981.03
2022-09-09T05:29:13.914Z,97981.38
2022-09-09T05:31:40.856Z,97990.50
2022-09-09T05:34:11.445Z,97989.09
2022-09-09T05:36:38.292Z,97986.44
2022-09-09T05:39:05.306Z,97981.78
2022-09-09T05:41:34.014Z,97985.31
2022-09-09T05:44:02.834Z,97992.31
2022-09-09T05:46:31.820Z,97984.50
2022-09-09T05:48:59.387Z,97985.63
2022-09-09T05:51:33.541Z,97987.97
2022-09-09T05:54:05.286Z,97992.13
2022-09-09T05:56:35.289Z,97992.38
2022-09-09T05:59:02.644Z,97997.38
2022-09-09T06:01:32.085Z,97995.50
2022-09-09T06:03:59.466Z,97990.19
2022-09-09T06:06:27.875Z,97991.66
2022-09-09T06:09:00.716Z,97991.47
2022-09-09T06:11:34.908Z,98000.97
2022-09-09T06:14:01.901Z,97998.53
2022-09-09T06:16:33.713Z,98001.41
2022-09-09T06:19:00.851Z,97987.81
2022-09-09T06:21:38.086Z,97996.44
2022-09-09T06:24:08.461Z,97993.97
2022-09-09T06:26:37.518Z,97991.66
2022-09-09T06:29:05.367Z,97991.06
2022-09-09T06:31:35.591Z,97990.44
2022-09-09T06:34:09.664Z,98003.41
2022-09-09T06:36:40.590Z,98005.84
2022-09-09T06:39:13.643Z,97998.25
2022-09-09T06:41:42.103Z,97997.22
2022-09-09T06:44:14.845Z,98000.91
2022-09-09T06:46:42.632Z,98004.97
2022-09-09T06:49:10.944Z,98002.09
2022-09-09T06:51:44.750Z,98005.97
2022-09-09T06:54:13.656Z,98002.06
2022-09-09T06:56:44.622Z,98002.03
2022-09-09T06:59:21.729Z,98022.34
2022-09-09T07:01:53.540Z,98016.34
2022-09-09T07:04:22.651Z,98006.56
2022-09-09T07:06:49.372Z,98010.91
2022-09-09T07:09:22.708Z,98010.09
2022-09-09T07:11:55.142Z,98005.47
2022-09-09T07:14:23.766Z,98006.69
2022-09-09T07:16:59.865Z,97992.63
2022-09-09T07:19:28.310Z,98002.06
2022-09-09T07:21:55.946Z,98002.91
2022-09-09T07:24:24.744Z,98008.84
2022-09-09T07:26:53.140Z,98009.06
2022-09-09T07:29:21.202Z,97996.50
2022-09-09T07:31:49.613Z,97998.78
2022-09-09T07:34:21.202Z,98002.59
2022-09-09T07:36:49.616Z,97998.13
2022-09-09T07:39:18.542Z,97996.28
2022-09-09T07:41:50.416Z,97999.44
2022-09-09T07:44:22.591Z,98003.19
2022-09-09T07:46:52.507Z,98008.16
2022-09-09T07:49:30.920Z,98002.50
2022-09-09T07:51:59.851Z,98000.09
2022-09-09T07:54:27.263Z,98004.88
2022-09-09T07:56:54.608Z,98008.69
2022-09-09T07:59:25.363Z,98011.81
2022-09-09T08:01:55.883Z,98015.97
2022-09-09T08:04:27.164Z,98020.59
2022-09-09T08:06:56.866Z,98022.78
2022-09-09T08:09:28.010Z,98012.97
2022-09-09T08:12:02.156Z,98008.41
2022-09-09T08:14:30.794Z,98008.28
2022-09-09T08:16:58.338Z,98014.25
2022-09-09T08:19:30.339Z,98022.53
2022-09-09T08:21:58.334Z,98020.69
2022-09-09T08:24:25.231Z,98020.63
2022-09-09T08:26:52.332Z,98011.09
2022-09-09T08:29:22.878Z,98013.47
2022-09-09T08:31:58.326Z,98022.84
2022-09-09T08:34:28.037Z,98025.88
2022-09-09T08:36:56.710Z,98031.09
2022-09-09T08:39:29.891Z,98035.06
2022-09-09T08:42:29.449Z,98029.44
2022-09-09T08:45:03.314Z,98031.72
2022-09-09T08:47:36.544Z,98017.41
2022-09-09T08:50:35.078Z,98018.31
2022-09-09T08:53:09.266Z,98017.69
2022-09-09T08:55:39.921Z,98012.59
2022-09-09T08:58:16.228Z,98014.44
2022-09-09T09:01:04.506Z,98004.66
2022-09-09T09:03:59.761Z,98009.28
2022-09-09T09:06:37.179Z,98005.84
2022-09-09T09:09:14.840Z,98003.47
2022-09-09T09:11:48.534Z,98004.78
2022-09-09T09:14:22.459Z,97998.84
2022-09-09T09:16:58.127Z,98008.22
2022-09-09T09:19:27.257Z,98004.22
2022-09-09T09:21:59.538Z,97992.91
2022-09-09T09:24:56.192Z,97983.59
2022-09-09T09:27:34.209Z,97990.66
2022-09-09T09:30:22.950Z,97984.66
2022-09-09T09:32:57.516Z,97993.16
2022-09-09T09:35:25.458Z,97995.94
2022-09-09T09:40:49.854Z,98004.59
2022-09-09T09:43:21.964Z,98005.97
2022-09-09T09:46:06.926Z,98005.25
2022-09-09T09:48:36.165Z,97993.03
2022-09-09T09:51:11.694Z,97992.16
2022-09-09T09:53:40.008Z,97992.44
2022-09-09T09:56:10.065Z,97993.16
2022-09-09T09:58:51.176Z,97979.59
2022-09-09T10:01:32.388Z,97981.59
2022-09-09T10:04:03.206Z,97976.66
2022-09-09T10:06:35.851Z,97981.28
2022-09-09T10:09:05.364Z,97978.13
2022-09-09T10:11:34.999Z,97976.09
2022-09-09T10:14:24.102Z,97972.84
2022-09-09T10:17:03.551Z,97975.66
2022-09-09T10:19:36.586Z,97971.72
2022-09-09T10:22:28.785Z,97962.50
2022-09-09T10:25:10.773Z,97963.78
2022-09-09T10:27:57.772Z,97967.66
2022-09-09T10:30:36.014Z,97962.75
2022-09-09T10:33:06.776Z,97966.34
2022-09-09T10:35:48.711Z,97972.06
2022-09-09T10:38:31.787Z,97967.03
2022-09-09T10:40:58.409Z,97967.88
2022-09-09T10:43:47.529Z,97969.28
2022-09-09T10:46:53.098Z,97964.50
2022-09-09T10:49:41.683Z,97961.00
2022-09-09T10:52:12.032Z,97961.56
2022-09-09T10:54:58.551Z,97960.44
2022-09-09T10:57:33.064Z,97954.72
2022-09-09T11:00:06.806Z,97951.56
2022-09-09T11:02:35.604Z,97958.56
2022-09-09T11:05:19.550Z,97960.03
2022-09-09T11:08:24.701Z,97957.75
2022-09-09T11:11:02.114Z,97945.28
2022-09-09T11:13:35.347Z,97951.78
2022-09-09T11:16:44.878Z,97948.53
2022-09-09T11:19:28.054Z,97944.91
2022-09-09T11:21:55.915Z,97945.22
2022-09-09T11:24:43.604Z,97959.31
2022-09-09T11:27:17.209Z,97970.09
2022-09-09T11:30:04.637Z,97993.94
2022-09-09T11:32:46.834Z,98024.19
2022-09-09T11:35:50.679Z,98040.38
2022-09-09T11:38:23.941Z,98030.13
2022-09-09T11:41:02.992Z,98049.41
2022-09-09T11:43:34.318Z,98039.13
2022-09-09T11:46:03.855Z,98033.16
2022-09-09T11:48:39.810Z,98035.41
2022-09-09T11:51:13.289Z,98038.81
2022-09-09T11:53:50.409Z,98033.66
2022-09-09T11:56:27.619Z,98035.47
2022-09-09T11:59:05.195Z,98027.81
2022-09-09T12:01:44.150Z,98029.25
2022-09-09T12:04:19.870Z,98014.84
2022-09-09T12:06:56.265Z,98016.03
2022-09-09T12:09:24.391Z,98012.81
2022-09-09T12:11:51.730Z,98014.47
2022-09-09T12:14:38.942Z,98005.66
2022-09-09T12:17:20.795Z,97997.03
2022-09-09T12:19:48.324Z,98005.47
2022-09-09T12:22:35.300Z,98003.72
2022-09-09T12:25:20.203Z,98005.59
2022-09-09T12:27:58.599Z,97999.63
2022-09-09T12:30:31.135Z,98001.91
2022-09-09T12:33:14.120Z,97994.56
2022-09-09T12:35:45.052Z,98004.59
2022-09-09T12:38:20.474Z,97996.59
2022-09-09T12:40:56.255Z,97992.06
2022-09-09T12:43:24.999Z,97992.34
2022-09-09T12:45:58.912Z,97989.47
2022-09-09T12:48:38.523Z,97982.91
2022-09-09T12:51:19.399Z,97986.47
2022-09-09T12:53:47.195Z,97978.94
2022-09-09T12:56:22.646Z,97974.44
2022-09-09T12:58:52.665Z,97975.41
2022-09-09T13:01:27.548Z,97961.25
2022-09-09T13:03:54.796Z,97966.84
2022-09-09T13:06:29.133Z,97949.50
2022-09-09T13:08:58.159Z,97951.09
2022-09-09T13:11:27.707Z,97951.25
2022-09-09T13:13:56.854Z,97950.78
2022-09-09T13:16:35.732Z,97951.72
2022-09-09T13:19:16.050Z,97946.00
2022-09-09T13:21:43.705Z,97942.13
2022-09-09T13:24:33.339Z,97938.41
2022-09-09T13:27:05.812Z,97945.22
2022-09-09T13:29:33.615Z,97940.03
2022-09-09T13:32:08.861Z,97938.56
2022-09-09T13:34:36.617Z,97938.78
2022-09-09T13:37:06.930Z,97934.47
2022-09-09T13:39:35.038Z,97936.13
2022-09-09T13:42:04.258Z,97934.75
2022-09-09T13:44:40.879Z,97924.09
2022-09-09T13:47:20.444Z,97928.59
2022-09-09T13:49:47.419Z,97918.31
2022-09-09T13:52:18.044Z,97916.41
2022-09-09T13:54:49.444Z,97913.59
2022-09-09T13:57:21.070Z,97916.31
2022-09-09T14:00:04.081Z,97907.97
2022-09-09T14:02:32.287Z,97918.53
2022-09-09T14:04:59.067Z,97918.97
2022-09-09T14:07:26.638Z,97919.91
2022-09-09T14:09:53.579Z,97911.84
2022-09-09T14:12:21.230Z,97910.47
2022-09-09T14:14:48.659Z,97918.03
2022-09-09T14:17:15.908Z,97920.47
2022-09-09T14:19:43.654Z,97911.53
2022-09-09T14:22:10.685Z,97909.06
2022-09-09T14:24:37.353Z,97911.84
2022-09-09T14:27:04.017Z,97909.66
2022-09-09T14:29:30.739Z,97904.19
2022-09-09T14:31:57.406Z,97898.00
2022-09-09T14:34:24.922Z,97902.13
2022-09-09T14:36:52.430Z,97905.03
2022-09-09T14:39:19.276Z,97887.47
2022-09-09T14:41:46.859Z,97899.09
2022-09-09T14:44:13.536Z,97907.97
2022-09-09T14:46:40.195Z,97901.44
2022-09-09T14:49:06.772Z,97907.72
2022-09-09T14:51:33.643Z,97903.78
2022-09-09T14:54:03.548Z,97896.16
2022-09-09T14:56:35.417Z,97892.00
2022-09-09T14:59:03.126Z,97896.88
2022-09-09T15:01:31.032Z,97901.91
2022-09-09T15:04:00.050Z,97909.06
2022-09-09T15:06:30.431Z,97906.81
2022-09-09T15:09:01.077Z,97909.13
2022-09-09T15:11:29.514Z,97914.28
2022-09-09T15:13:56.153Z,97909.63
2022-09-09T15:16:28.596Z,97911.00
2022-09-09T15:19:00.546Z,97910.50
2022-09-09T15:21:32.496Z,97911.09
2022-09-09T15:24:00.534Z,97908.88
2022-09-09T15:26:28.716Z,97915.22
2022-09-09T15:28:55.867Z,97913.03
2022-09-09T15:31:27.900Z,97902.72
2022-09-09T15:34:01.868Z,97913.50
2022-09-09T15:36:36.680Z,97910.69
2022-09-09T15:39:05.818Z,97909.72
2022-09-09T15:41:33.510Z,97908.56
2022-09-09T15:44:01.652Z,97908.22
2022-09-09T15:46:39.376Z,97915.41
2022-09-09T15:49:12.722Z,97913.66
2022-09-09T15:51:45.268Z,97918.75
2022-09-09T15:54:14.508Z,97915.81
2022-09-09T15:56:41.577Z,97916.38
2022-09-09T15:59:08.245Z,97916.56
2022-09-09T16:01:35.358Z,97920.91
2022-09-09T16:04:02.237Z,97919.44
2022-09-09T16:06:30.048Z,97926.66
2022-09-09T16:08:57.930Z,97917.34
2022-09-09T16:11:36.713Z,97913.47
2022-09-09T16:14:04.935Z,97916.22
2022-09-09T16:16:32.186Z,97926.72
2022-09-09T16:19:01.022Z,97931.81
2022-09-09T16:21:30.310Z,97926.94
2022-09-09T16:24:00.542Z,97933.97
2022-09-09T16:26:28.686Z,97947.31
2022-09-09T16:28:55.532Z,97944.84
2022-09-09T16:31:24.197Z,97947.38
2022-09-09T16:33:51.635Z,97960.19
2022-09-09T16:36:23.846Z,97976.88
2022-09-09T16:38:55.096Z,97980.22
2022-09-09T16:41:22.923Z,97983.06
2022-09-09T16:43:57.117Z,97987.84
2022-09-09T16:46:25.498Z,97990.53
2022-09-09T16:48:52.852Z,97992.56
2022-09-09T16:51:25.037Z,97994.75
2022-09-09T16:53:52.763Z,97998.41
2022-09-09T16:56:22.297Z,97989.78
2022-09-09T16:58:57.455Z,97997.22
2022-09-09T17:01:25.346Z,98005.84
2022-09-09T17:04:00.911Z,98005.47
2022-09-09T17:06:30.208Z,98005.50
2022-09-09T17:09:00.125Z,98010.25
2022-09-09T17:11:26.943Z,98006.72
2022-09-09T17:13:54.241Z,98006.69
2022-09-09T17:16:25.378Z,98000.31
2022-09-09T17:18:52.727Z,97998.03
2022-09-09T17:21:22.033Z,98004.41
2022-09-09T17:23:49.144Z,97998.41
2022-09-09T17:26:19.661Z,97995.06
2022-09-09T17:28:46.803Z,98001.81
2022-09-09T17:31:15.953Z,98001.81
2022-09-09T17:33:45.161Z,98006.34
2022-09-09T17:36:17.682Z,98005.34
2022-09-09T17:38:44.462Z,98002.03
2022-09-09T17:41:23.118Z,98004.13
2022-09-09T17:43:50.477Z,97995.75
2022-09-09T17:46:23.195Z,97996.78
2022-09-09T17:48:53.991Z,97997.78
2022-09-09T17:51:25.624Z,98007.41
2022-09-09T17:53:53.241Z,98011.53
2022-09-09T17:56:21.107Z,98014.59
2022-09-09T17:58:49.373Z,98016.41
2022-09-09T18:01:19.379Z,98016.25
2022-09-09T18:03:47.615Z,98011.72
2022-09-09T18:06:17.402Z,98022.03
2022-09-09T18:08:49.404Z,98019.72
2022-09-09T18:11:16.736Z,98017.88
2022-09-09T18:13:43.408Z,98019.44
2022-09-09T18:16:11.015Z,98027.63
2022-09-09T18:18:39.046Z,98030.69
2022-09-09T18:21:08.630Z,98038.16
2022-09-09T18:23:37.582Z,98036.31
2022-09-09T18:26:16.574Z,98038.00
2022-09-09T18:28:44.818Z,98044.38
2022-09-09T18:31:14.438Z,98055.50
2022-09-09T18:33:46.153Z,98051.78
2022-09-09T18:36:18.387Z,98057.53
2022-09-09T18:38:45.496Z,98060.63
2022-09-09T18:41:19.073Z,98069.28
2022-09-09T18:43:45.885Z,98075.47
2022-09-09T18:46:12.955Z,98069.06
2022-09-09T18:48:39.774Z,98069.03
2022-09-09T18:51:10.620Z,98074.31
2022-09-09T18:53:38.064Z,98082.91
2022-09-09T18:56:07.551Z,98084.06
2022-09-09T18:58:35.301Z,98083.41
2022-09-09T19:01:03.641Z,98091.97
2022-09-09T19:03:31.287Z,98086.00
2022-09-09T19:06:10.724Z,98075.91
2022-09-09T19:08:38.694Z,98077.59
2022-09-09T19:11:10.515Z,98076.50
2022-09-09T19:13:38.451Z,98080.38
2022-09-09T19:16:07.063Z,98079.53
2022-09-09T19:18:34.388Z,98079.97
2022-09-09T19:21:18.905Z,98070.31
2022-09-09T19:24:02.908Z,98079.16
2022-09-09T19:26:33.329Z,98076.69
2022-09-09T19:29:02.785Z,98076.84
2022-09-09T19:31:30.409Z,98085.41
2022-09-09T19:33:57.555Z,98069.63
2022-09-09T19:36:27.735Z,98085.00
2022-09-09T19:39:00.406Z,98083.06
2022-09-09T19:41:28.524Z,98079.97
2022-09-09T19:44:02.262Z,98088.25
2022-09-09T19:46:30.475Z,98091.75
2022-09-09T19:48:57.928Z,98098.38
2022-09-09T19:51:26.828Z,98096.19
2022-09-09T19:54:21.197Z,98101.69
2022-09-09T19:56:47.849Z,98096.03
2022-09-09T19:59:15.719Z,98105.13
2022-09-09T20:01:46.826Z,98101.75
2022-09-09T20:04:14.712Z,98095.31
2022-09-09T20:06:44.199Z,98105.03
2022-09-09T20:09:16.502Z,98107.50
2022-09-09T20:11:44.818Z,98108.69
2022-09-09T20:14:12.763Z,98113.84
2022-09-09T20:16:40.049Z,98111.19
2022-09-09T20:19:10.360Z,98118.41
2022-09-09T20:21:45.260Z,98118.91
2022-09-09T20:24:15.208Z,98126.81
2022-09-09T20:26:41.937Z,98114.19
2022-09-09T20:29:15.814Z,98112.25
2022-09-09T20:31:43.606Z,98120.75
2022-09-09T20:34:12.541Z,98117.69
2022-09-09T20:36:40.110Z,98118.84
2022-09-09T20:39:12.065Z,98124.63
2022-09-09T20:41:40.361Z,98124.16
2022-09-09T20:44:12.413Z,98122.94
2022-09-09T20:46:41.568Z,98120.16
2022-09-09T20:49:09.929Z,98131.41
2022-09-09T20:51:37.610Z,98134.84
2022-09-09T20:54:05.926Z,98134.03
2022-09-09T20:56:38.688Z,98138.94
2022-09-09T20:59:06.817Z,98138.31
2022-09-09T21:01:33.818Z,98134.44
2022-09-09T21:04:01.055Z,98128.50
2022-09-09T21:06:27.776Z,98130.97
2022-09-09T21:08:54.613Z,98135.81
2022-09-09T21:11:21.358Z,98131.31
2022-09-09T21:13:48.054Z,98128.50
2022-09-09T21:16:19.455Z,98129.59
2022-09-09T21:18:46.317Z,98136.13
2022-09-09T21:21:12.999Z,98125.72
2022-09-09T21:23:39.809Z,98124.50
2022-09-09T21:26:07.725Z,98133.72
2022-09-09T21:28:36.208Z,98126.22
2022-09-09T21:31:03.537Z,98128.47
2022-09-09T21:33:30.496Z,98129.44
2022-09-09T21:36:03.026Z,98127.69
2022-09-09T21:38:30.482Z,98135.78
2022-09-09T21:40:57.184Z,98143.47
2022-09-09T21:43:23.889Z,98137.31
2022-09-09T21:45:53.763Z,98143.97
2022-09-09T21:48:20.460Z,98143.91
2022-09-09T21:50:48.183Z,98143.38
2022-09-09T21:53:18.215Z,98136.66
2022-09-09T21:55:47.779Z,98135.38
2022-09-09T21:58:15.667Z,98137.91
2022-09-09T22:00:45.705Z,98144.91
2022-09-09T22:03:15.872Z,98140.38
2022-09-09T22:05:44.314Z,98134.25
2022-09-09T22:08:13.351Z,98138.47
2022-09-09T22:10:41.927Z,98144.03
2022-09-09T22:13:08.773Z,98138.38
2022-09-09T22:15:36.791Z,98149.94
2022-09-09T22:18:04.480Z,98141.41
2022-09-09T22:20:33.439Z,98133.97
2022-09-09T22:23:01.667Z,98129.50
2022-09-09T22:25:32.326Z,98141.50
2022-09-09T22:27:59.383Z,98128.44
2022-09-09T22:30:26.062Z,98116.53
2022-09-09T22:32:53.206Z,98131.47
2022-09-09T22:35:20.057Z,98138.66
2022-09-09T22:37:47.549Z,98127.66
2022-09-09T22:40:15.278Z,98129.97
2022-09-09T22:42:42.512Z,98131.34
2022-09-09T22:45:10.269Z,98133.88
2022-09-09T22:47:37.801Z,98131.84
2022-09-09T22:50:04.849Z,98135.34
2022-09-09T22:52:32.255Z,98133.56
2022-09-09T22:55:02.064Z,98142.72
2022-09-09T22:57:29.074Z,98143.13
2022-09-09T22:59:56.162Z,98146.00
2022-09-09T23:02:22.863Z,98143.97
2022-09-09T23:04:49.563Z,98153.81
2022-09-09T23:07:20.675Z,98157.53
2022-09-09T23:09:47.880Z,98181.72
2022-09-09T23:12:14.940Z,98183.88
2022-09-09T23:14:41.684Z,98185.47
2022-09-09T23:17:08.861Z,98190.00
2022-09-09T23:19:37.146Z,98193.66
2022-09-09T23:22:04.097Z,98206.09
2022-09-09T23:24:30.780Z,98192.25
2022-09-09T23:26:57.655Z,98179.59
2022-09-09T23:29:24.418Z,98185.31
2022-09-09T23:31:51.131Z,98190.78
2022-09-09T23:34:18.185Z,98186.47
2022-09-09T23:36:44.829Z,98184.09
2022-09-09T23:39:12.231Z,98183.00
2022-09-09T23:41:40.265Z,98181.44
2022-09-09T23:44:08.249Z,98181.44
2022-09-09T23:46:35.739Z,98179.88
2022-09-09T23:49:02.855Z,98179.03
2022-09-09T23:51:31.056Z,98175.94
2022-09-09T23:54:00.502Z,98171.34
2022-09-09T23:56:31.328Z,98171.69
2022-09-09T23:58:57.980Z,98165.19
